Time;durP1;ratioP1;P1;durP2;ratioP2;P2;SDS_P1;SDS_P2;PMS_P1;PMS_P2;Temp;Humidity;BMP_temperature;BMP_pressure;BME280_temperature;BME280_humidity;BME280_pressure;Samples;Min_cycle;Max_cycle;Signal;HPM_P1;HPM_P2
2023/10/06 00:00:35;;;;;;;15.80;7.20;;;;;;;;;;2081528;28;20033;-69
2023/10/06 00:01:55;;;;;;;16.00;7.72;;;;;;;;;;2088530;28;20029;-69
2023/10/06 00:03:16;;;;;;;13.05;7.57;;;;;;;;;;2083899;28;20021;-69
2023/10/06 00:04:38;;;;;;;14.35;7.57;;;;;;;;;;2078398;28;20042;-69
2023/10/06 00:05:59;;;;;;;16.15;8.35;;;;;;;;;;2084638;28;20029;-70
2023/10/06 00:07:23;;;;;;;14.63;8.30;;;;;;;;;;2084096;28;20043;-70
2023/10/06 00:08:51;;;;;;;12.27;8.30;;;;;;;;;;2071706;28;20037;-69
2023/10/06 00:10:16;;;;;;;15.13;8.82;;;;;;;;;;2079547;28;20030;-70
2023/10/06 00:11:40;;;;;;;17.08;8.05;;;;;;;;;;2081564;28;20493;-69
2023/10/06 00:13:05;;;;;;;21.63;9.85;;;;;;;;;;2080172;28;20045;-69
2023/10/06 00:14:48;;;;;;;15.68;7.72;;;;;;;;;;2071718;28;20080;-71
2023/10/06 00:16:09;;;;;;;16.75;8.88;;;;;;;;;;2080868;28;20044;-70
2023/10/06 00:17:33;;;;;;;13.57;7.35;;;;;;;;;;2080457;28;20037;-69
2023/10/06 00:18:59;;;;;;;16.48;9.15;;;;;;;;;;2082200;28;20444;-70
2023/10/06 00:20:26;;;;;;;16.90;8.25;;;;;;;;;;2080861;28;20018;-73
2023/10/06 00:21:53;;;;;;;14.52;7.85;;;;;;;;;;2079812;28;20041;-73
2023/10/06 00:23:21;;;;;;;16.15;7.97;;;;;;;;;;2080014;28;20025;-72
2023/10/06 00:24:43;;;;;;;12.98;7.70;;;;;;;;;;2080920;28;20509;-72
2023/10/06 00:26:04;;;;;;;14.40;7.53;;;;;;;;;;2079448;28;20038;-73
2023/10/06 00:27:29;;;;;;;14.77;8.45;;;;;;;;;;2088604;28;20025;-72
2023/10/06 00:28:50;;;;;;;18.88;8.27;;;;;;;;;;2082585;28;20037;-73
2023/10/06 00:30:11;;;;;;;17.42;8.48;;;;;;;;;;2079821;28;20029;-72
2023/10/06 00:31:32;;;;;;;14.27;7.88;;;;;;;;;;2088754;28;20033;-72
2023/10/06 00:32:55;;;;;;;15.63;9.30;;;;;;;;;;2083124;28;20041;-71
2023/10/06 00:34:19;;;;;;;14.82;7.75;;;;;;;;;;2071989;28;20025;-73
2023/10/06 00:35:40;;;;;;;14.00;8.23;;;;;;;;;;2078040;28;20481;-73
2023/10/06 00:37:02;;;;;;;16.75;9.77;;;;;;;;;;2080972;28;20061;-72
2023/10/06 00:38:23;;;;;;;13.23;8.43;;;;;;;;;;2078866;28;20079;-72
2023/10/06 00:39:44;;;;;;;21.83;8.98;;;;;;;;;;2072124;28;20367;-72
2023/10/06 00:41:07;;;;;;;14.60;9.57;;;;;;;;;;2085139;28;20377;-72
2023/10/06 00:42:29;;;;;;;15.40;8.70;;;;;;;;;;2075845;28;20030;-73
2023/10/06 00:43:50;;;;;;;15.32;8.45;;;;;;;;;;2070465;28;20495;-73
2023/10/06 00:45:11;;;;;;;12.52;8.55;;;;;;;;;;2078509;28;20467;-72
2023/10/06 00:46:32;;;;;;;19.83;9.60;;;;;;;;;;2074027;28;20042;-72
2023/10/06 00:47:53;;;;;;;18.52;8.90;;;;;;;;;;2079316;28;20072;-72
2023/10/06 00:49:14;;;;;;;17.80;9.07;;;;;;;;;;2077408;28;20088;-72
2023/10/06 00:50:36;;;;;;;15.10;9.32;;;;;;;;;;2075799;28;20037;-72
2023/10/06 00:51:59;;;;;;;15.75;8.43;;;;;;;;;;2074825;28;20088;-73
2023/10/06 00:53:20;;;;;;;14.10;9.10;;;;;;;;;;2075612;28;20029;-72
2023/10/06 00:54:43;;;;;;;14.07;8.23;;;;;;;;;;2086458;28;20033;-72
2023/10/06 00:56:11;;;;;;;16.73;8.57;;;;;;;;;;2079834;28;20096;-72
2023/10/06 00:57:31;;;;;;;17.52;9.57;;;;;;;;;;2072548;28;20042;-72
2023/10/06 00:58:52;;;;;;;16.08;8.30;;;;;;;;;;2071721;28;20116;-72
2023/10/06 01:00:21;;;;;;;11.70;8.45;;;;;;;;;;2072007;28;20042;-72
2023/10/06 01:01:42;;;;;;;20.75;10.68;;;;;;;;;;2072532;28;20108;-73
2023/10/06 01:03:14;;;;;;;16.63;9.98;;;;;;;;;;2071823;28;20026;-72
2023/10/06 01:04:45;;;;;;;15.73;8.45;;;;;;;;;;2071482;28;20041;-72
2023/10/06 01:06:12;;;;;;;15.40;8.40;;;;;;;;;;2070531;28;20084;-73
2023/10/06 01:07:33;;;;;;;15.73;9.63;;;;;;;;;;2070550;28;20080;-73
2023/10/06 01:09:06;;;;;;;14.93;8.98;;;;;;;;;;2069488;28;20041;-73
2023/10/06 01:10:27;;;;;;;20.45;9.70;;;;;;;;;;2081622;28;20469;-73
2023/10/06 01:11:50;;;;;;;16.60;9.73;;;;;;;;;;2076630;28;20046;-73
2023/10/06 01:13:12;;;;;;;14.40;7.90;;;;;;;;;;2072630;28;20030;-73
2023/10/06 01:14:35;;;;;;;13.18;8.68;;;;;;;;;;2072893;28;20151;-73
2023/10/06 01:15:56;;;;;;;21.45;8.60;;;;;;;;;;2070791;28;20104;-73
2023/10/06 01:17:16;;;;;;;17.20;9.30;;;;;;;;;;2071748;28;20092;-72
2023/10/06 01:18:41;;;;;;;16.85;7.95;;;;;;;;;;2075680;28;20049;-73
2023/10/06 01:20:02;;;;;;;13.43;8.50;;;;;;;;;;2086828;28;20573;-73
2023/10/06 01:21:29;;;;;;;16.40;8.27;;;;;;;;;;2083108;28;20041;-73
2023/10/06 01:22:55;;;;;;;22.30;9.13;;;;;;;;;;2070721;28;20037;-73
2023/10/06 01:24:25;;;;;;;12.48;8.35;;;;;;;;;;2080617;28;20535;-73
2023/10/06 01:25:46;;;;;;;12.57;8.30;;;;;;;;;;2081093;28;20469;-73
2023/10/06 01:27:07;;;;;;;20.90;10.32;;;;;;;;;;2078451;28;20057;-73
2023/10/06 01:28:28;;;;;;;9.50;7.10;;;;;;;;;;2079201;28;20088;-72
2023/10/06 01:29:53;;;;;;;16.60;9.32;;;;;;;;;;2079573;28;20045;-74
2023/10/06 01:31:14;;;;;;;21.95;9.90;;;;;;;;;;2081038;28;20021;-73
2023/10/06 01:32:35;;;;;;;14.50;9.07;;;;;;;;;;2080248;28;20091;-72
2023/10/06 01:33:56;;;;;;;15.57;8.35;;;;;;;;;;2080095;28;20030;-72
2023/10/06 01:35:18;;;;;;;19.02;9.02;;;;;;;;;;2079346;28;20663;-72
2023/10/06 01:36:39;;;;;;;18.58;10.65;;;;;;;;;;2079739;28;20079;-73
2023/10/06 01:38:00;;;;;;;13.80;8.98;;;;;;;;;;2086757;28;20575;-72
2023/10/06 01:39:26;;;;;;;14.98;8.80;;;;;;;;;;2073867;28;21282;-72
2023/10/06 01:40:50;;;;;;;12.15;7.95;;;;;;;;;;2076590;28;20030;-72
2023/10/06 01:42:16;;;;;;;17.15;9.80;;;;;;;;;;2072915;28;20033;-72
2023/10/06 01:43:38;;;;;;;10.40;7.60;;;;;;;;;;2071699;28;20030;-73
2023/10/06 01:45:13;;;;;;;14.50;8.77;;;;;;;;;;2071062;28;20050;-72
2023/10/06 01:46:36;;;;;;;14.90;8.35;;;;;;;;;;2071421;28;20491;-72
2023/10/06 01:48:14;;;;;;;18.10;9.18;;;;;;;;;;2070633;28;20756;-72
2023/10/06 01:49:35;;;;;;;15.95;8.52;;;;;;;;;;2080072;28;20068;-73
2023/10/06 01:50:56;;;;;;;11.68;7.57;;;;;;;;;;2079831;28;20065;-73
2023/10/06 01:52:19;;;;;;;15.13;8.77;;;;;;;;;;2075360;28;20030;-73
2023/10/06 01:53:40;;;;;;;13.82;8.00;;;;;;;;;;2080048;28;20022;-73
2023/10/06 01:55:18;;;;;;;16.23;8.10;;;;;;;;;;2074750;28;20054;-72
2023/10/06 01:56:42;;;;;;;12.85;6.93;;;;;;;;;;2064280;28;20078;-73
2023/10/06 01:58:04;;;;;;;14.95;7.57;;;;;;;;;;2072364;28;20030;-72
2023/10/06 01:59:25;;;;;;;13.20;8.40;;;;;;;;;;2077664;28;20041;-73
2023/10/06 02:00:48;;;;;;;18.13;8.80;;;;;;;;;;2078695;28;20539;-73
2023/10/06 02:02:12;;;;;;;16.63;8.95;;;;;;;;;;2061426;28;20042;-72
2023/10/06 02:03:38;;;;;;;14.63;7.63;;;;;;;;;;2071823;28;20061;-72
2023/10/06 02:04:59;;;;;;;10.98;7.35;;;;;;;;;;2080552;28;20037;-72
2023/10/06 02:06:20;;;;;;;15.17;7.80;;;;;;;;;;2076221;28;20022;-73
2023/10/06 02:07:44;;;;;;;14.93;7.53;;;;;;;;;;2074303;28;20400;-72
2023/10/06 02:09:05;;;;;;;14.07;7.85;;;;;;;;;;2072974;28;20089;-72
2023/10/06 02:10:32;;;;;;;16.75;8.43;;;;;;;;;;2069047;28;20347;-72
2023/10/06 02:11:55;;;;;;;10.90;7.78;;;;;;;;;;2068600;28;20034;-73
2023/10/06 02:13:21;;;;;;;15.55;7.38;;;;;;;;;;2073427;28;20026;-73
2023/10/06 02:14:42;;;;;;;20.33;7.53;;;;;;;;;;2067721;28;20422;-72
2023/10/06 02:16:04;;;;;;;19.98;9.38;;;;;;;;;;2069755;28;20033;-72
2023/10/06 02:17:25;;;;;;;16.90;7.45;;;;;;;;;;2066103;28;20493;-72
2023/10/06 02:18:46;;;;;;;12.35;7.85;;;;;;;;;;2082652;28;20106;-72
2023/10/06 02:21:49;;;;;;;13.75;8.85;;;;;;;;;;2076712;28;20405;-73
2023/10/06 02:23:09;;;;;;;15.02;8.65;;;;;;;;;;2073839;28;20115;-73
2023/10/06 02:24:30;;;;;;;12.77;7.80;;;;;;;;;;2075546;28;20040;-73
2023/10/06 02:25:51;;;;;;;14.68;8.10;;;;;;;;;;2080645;28;20424;-73
2023/10/06 02:27:12;;;;;;;18.80;9.40;;;;;;;;;;2079928;28;20034;-72
2023/10/06 02:28:33;;;;;;;15.10;8.55;;;;;;;;;;2076388;28;20037;-72
2023/10/06 02:29:56;;;;;;;13.48;9.18;;;;;;;;;;2081828;28;20076;-72
2023/10/06 02:31:21;;;;;;;14.77;8.85;;;;;;;;;;2083927;28;20033;-72
2023/10/06 02:32:43;;;;;;;16.42;8.20;;;;;;;;;;2074423;28;20492;-73
2023/10/06 02:34:12;;;;;;;22.55;9.57;;;;;;;;;;2074565;28;20030;-73
2023/10/06 02:35:42;;;;;;;15.30;9.05;;;;;;;;;;2082549;28;20029;-73
2023/10/06 02:37:04;;;;;;;14.60;8.45;;;;;;;;;;2081071;28;20033;-73
2023/10/06 02:38:34;;;;;;;13.20;7.55;;;;;;;;;;2071039;28;20026;-73
2023/10/06 02:39:59;;;;;;;20.83;8.90;;;;;;;;;;2088991;28;20098;-72
2023/10/06 02:41:23;;;;;;;15.23;8.63;;;;;;;;;;2084439;28;20388;-73
2023/10/06 02:42:52;;;;;;;16.52;8.70;;;;;;;;;;2079095;28;20025;-74
2023/10/06 02:44:22;;;;;;;14.98;8.70;;;;;;;;;;2076355;28;20041;-74
2023/10/06 02:45:43;;;;;;;19.52;8.80;;;;;;;;;;2079597;28;20034;-74
2023/10/06 02:47:08;;;;;;;13.30;8.50;;;;;;;;;;2074771;28;20440;-74
2023/10/06 02:48:33;;;;;;;14.68;7.65;;;;;;;;;;2072681;28;20042;-74
2023/10/06 02:49:59;;;;;;;16.75;7.80;;;;;;;;;;2086461;28;20041;-75
2023/10/06 02:51:28;;;;;;;17.17;7.78;;;;;;;;;;2076658;28;20038;-74
2023/10/06 02:52:53;;;;;;;20.13;9.57;;;;;;;;;;2083022;28;20508;-74
2023/10/06 02:55:35;;;;;;;21.63;8.90;;;;;;;;;;2080128;28;20029;-74
2023/10/06 02:56:56;;;;;;;12.52;7.57;;;;;;;;;;2089518;28;20033;-75
2023/10/06 02:58:30;;;;;;;18.42;8.25;;;;;;;;;;2084316;28;20396;-74
2023/10/06 02:59:56;;;;;;;17.27;8.70;;;;;;;;;;2089032;28;20041;-74
2023/10/06 03:01:17;;;;;;;16.92;8.45;;;;;;;;;;2082444;28;20026;-74
2023/10/06 03:02:40;;;;;;;15.48;9.15;;;;;;;;;;2081560;28;20066;-74
2023/10/06 03:04:07;;;;;;;16.50;8.60;;;;;;;;;;2080537;28;20030;-74
2023/10/06 03:05:39;;;;;;;12.65;8.48;;;;;;;;;;2091874;28;20534;-75
2023/10/06 03:06:59;;;;;;;12.07;7.60;;;;;;;;;;2075716;28;20026;-76
2023/10/06 03:08:20;;;;;;;11.82;8.00;;;;;;;;;;2080090;28;20133;-74
2023/10/06 03:09:48;;;;;;;16.23;8.65;;;;;;;;;;2079500;28;20040;-75
2023/10/06 03:11:12;;;;;;;12.88;8.10;;;;;;;;;;2077607;28;20055;-74
2023/10/06 03:12:33;;;;;;;13.02;8.25;;;;;;;;;;2089487;28;20389;-74
2023/10/06 03:13:58;;;;;;;17.73;9.13;;;;;;;;;;2082501;28;20041;-74
2023/10/06 03:15:33;;;;;;;17.88;8.82;;;;;;;;;;2088008;28;20033;-75
2023/10/06 03:16:54;;;;;;;17.90;9.30;;;;;;;;;;2072887;28;20503;-74
2023/10/06 03:18:16;;;;;;;13.38;8.60;;;;;;;;;;2089409;28;20064;-75
2023/10/06 03:19:40;;;;;;;15.68;8.93;;;;;;;;;;2075686;28;20038;-75
2023/10/06 03:21:13;;;;;;;22.85;9.20;;;;;;;;;;2071410;28;20026;-74
2023/10/06 03:22:40;;;;;;;;;;;;;;;;;;2069265;28;20061;-74
2023/10/06 03:24:06;;;;;;;18.88;8.40;;;;;;;;;;2073299;28;20284;-74
2023/10/06 03:25:28;;;;;;;13.55;7.97;;;;;;;;;;2081903;28;20396;-74
2023/10/06 03:26:51;;;;;;;13.30;8.35;;;;;;;;;;2067281;28;20481;-74
2023/10/06 03:28:13;;;;;;;16.17;9.02;;;;;;;;;;2069592;28;20108;-74
2023/10/06 03:29:55;;;;;;;19.63;9.00;;;;;;;;;;2077942;28;20030;-74
2023/10/06 03:32:39;;;;;;;14.18;8.00;;;;;;;;;;2081784;28;20026;-74
2023/10/06 03:34:00;;;;;;;15.88;9.00;;;;;;;;;;2088786;28;20025;-75
2023/10/06 03:35:35;;;;;;;14.43;8.25;;;;;;;;;;2082216;28;20507;-74
2023/10/06 03:36:56;;;;;;;17.35;8.05;;;;;;;;;;2079071;28;20034;-75
2023/10/06 03:39:50;;;;;;;15.00;9.45;;;;;;;;;;2080056;28;20473;-74
2023/10/06 03:41:18;;;;;;;19.80;9.00;;;;;;;;;;2081416;28;20032;-75
2023/10/06 03:42:39;;;;;;;20.92;9.63;;;;;;;;;;2075063;28;20033;-75
2023/10/06 03:44:02;;;;;;;18.42;8.82;;;;;;;;;;2078850;28;20439;-74
2023/10/06 03:45:31;;;;;;;18.85;8.57;;;;;;;;;;2088550;28;20091;-74
2023/10/06 03:46:53;;;;;;;14.45;8.32;;;;;;;;;;2091695;28;20033;-74
2023/10/06 03:48:14;;;;;;;12.45;8.70;;;;;;;;;;2086867;28;20021;-74
2023/10/06 03:49:35;;;;;;;16.55;9.10;;;;;;;;;;2082046;28;20037;-74
2023/10/06 03:50:56;;;;;;;15.75;8.73;;;;;;;;;;2080802;28;20052;-74
2023/10/06 03:52:17;;;;;;;15.30;8.80;;;;;;;;;;2074927;28;20037;-74
2023/10/06 03:53:37;;;;;;;16.13;9.27;;;;;;;;;;2085733;28;20424;-74
2023/10/06 03:54:58;;;;;;;14.43;8.60;;;;;;;;;;2083780;28;20041;-74
2023/10/06 03:56:19;;;;;;;15.55;8.63;;;;;;;;;;2088506;28;20029;-74
2023/10/06 03:57:40;;;;;;;14.32;9.70;;;;;;;;;;2082587;28;20037;-75
2023/10/06 03:59:02;;;;;;;17.27;10.95;;;;;;;;;;2079726;28;20029;-75
2023/10/06 04:00:26;;;;;;;14.77;9.25;;;;;;;;;;2086809;28;20033;-76
2023/10/06 04:01:47;;;;;;;17.30;8.90;;;;;;;;;;2082153;28;20128;-73
2023/10/06 04:03:15;;;;;;;22.15;9.63;;;;;;;;;;2085850;28;20103;-75
2023/10/06 04:04:39;;;;;;;14.07;8.77;;;;;;;;;;2081322;28;20038;-74
2023/10/06 04:06:03;;;;;;;17.60;9.15;;;;;;;;;;2076695;28;20029;-74
2023/10/06 04:07:23;;;;;;;17.50;9.63;;;;;;;;;;2080999;28;20424;-75
2023/10/06 04:08:48;;;;;;;16.25;8.95;;;;;;;;;;2081733;28;20113;-74
2023/10/06 04:10:14;;;;;;;22.88;9.77;;;;;;;;;;2080381;28;20037;-74
2023/10/06 04:11:35;;;;;;;19.38;9.00;;;;;;;;;;2082977;28;20105;-74
2023/10/06 04:12:56;;;;;;;14.73;8.40;;;;;;;;;;2080882;28;20389;-74
2023/10/06 04:14:17;;;;;;;15.52;9.50;;;;;;;;;;2081832;28;20025;-74
2023/10/06 04:15:39;;;;;;;15.52;9.20;;;;;;;;;;2090279;28;20037;-74
2023/10/06 04:17:05;;;;;;;16.13;8.70;;;;;;;;;;2085066;28;20052;-74
2023/10/06 04:18:26;;;;;;;15.73;9.60;;;;;;;;;;2082315;28;20238;-74
2023/10/06 04:19:48;;;;;;;19.00;9.93;;;;;;;;;;2084047;28;20041;-74
2023/10/06 04:21:11;;;;;;;15.05;8.90;;;;;;;;;;2081304;28;20602;-74
2023/10/06 04:22:36;;;;;;;15.20;9.15;;;;;;;;;;2081229;28;20475;-74
2023/10/06 04:23:57;;;;;;;14.05;9.10;;;;;;;;;;2088236;28;20029;-74
2023/10/06 04:25:17;;;;;;;15.48;9.48;;;;;;;;;;2089985;28;20037;-74
2023/10/06 04:26:39;;;;;;;14.40;9.10;;;;;;;;;;2081508;28;20025;-74
2023/10/06 04:28:00;;;;;;;16.58;9.32;;;;;;;;;;2080621;28;20041;-75
2023/10/06 04:29:25;;;;;;;13.32;8.73;;;;;;;;;;2086925;28;20206;-74
2023/10/06 04:30:46;;;;;;;16.35;9.10;;;;;;;;;;2087670;28;20029;-75
2023/10/06 04:32:08;;;;;;;23.85;9.25;;;;;;;;;;2079257;28;20022;-74
2023/10/06 04:33:28;;;;;;;16.17;8.53;;;;;;;;;;2083453;28;20051;-74
2023/10/06 04:34:51;;;;;;;15.32;8.73;;;;;;;;;;2079779;28;20981;-74
2023/10/06 04:36:18;;;;;;;;;;;;;;;;;;2083199;28;20056;-74
2023/10/06 04:37:39;;;;;;;17.40;10.25;;;;;;;;;;2080588;28;19917;-74
2023/10/06 04:39:00;;;;;;;12.90;10.13;;;;;;;;;;2079234;28;20749;-73
2023/10/06 04:40:21;;;;;;;14.77;8.57;;;;;;;;;;2072239;28;20042;-75
2023/10/06 04:41:42;;;;;;;14.63;8.73;;;;;;;;;;2078808;28;20025;-75
2023/10/06 04:43:03;;;;;;;17.77;9.07;;;;;;;;;;2070818;28;20097;-75
2023/10/06 04:44:24;;;;;;;16.35;9.15;;;;;;;;;;2075892;28;20032;-75
2023/10/06 04:45:47;;;;;;;16.98;10.27;;;;;;;;;;2079477;28;20033;-75
2023/10/06 04:47:09;;;;;;;15.60;9.18;;;;;;;;;;2083438;28;20099;-75
2023/10/06 04:48:30;;;;;;;15.80;8.90;;;;;;;;;;2089732;28;20033;-76
2023/10/06 04:49:52;;;;;;;21.52;10.05;;;;;;;;;;2071895;28;20037;-75
2023/10/06 04:51:13;;;;;;;16.27;9.05;;;;;;;;;;2072865;28;20025;-75
2023/10/06 04:52:36;;;;;;;17.85;9.63;;;;;;;;;;2073193;28;20485;-75
2023/10/06 04:53:57;;;;;;;12.80;8.90;;;;;;;;;;2069944;28;20509;-74
2023/10/06 04:55:21;;;;;;;15.48;9.35;;;;;;;;;;2074775;28;20034;-75
2023/10/06 04:56:42;;;;;;;18.63;9.43;;;;;;;;;;2073392;28;20046;-75
2023/10/06 04:58:15;;;;;;;15.48;9.38;;;;;;;;;;2073158;28;20100;-75
2023/10/06 04:59:36;;;;;;;;;;;;;;;;;;2068769;28;20483;-75
2023/10/06 05:00:59;;;;;;;21.08;10.00;;;;;;;;;;2074386;28;19921;-72
2023/10/06 05:02:23;;;;;;;16.63;9.23;;;;;;;;;;2077560;28;20037;-69
2023/10/06 05:03:45;;;;;;;16.48;9.30;;;;;;;;;;2076673;28;20041;-70
2023/10/06 05:05:06;;;;;;;16.50;9.75;;;;;;;;;;2073443;28;20033;-71
2023/10/06 05:06:27;;;;;;;22.33;9.88;;;;;;;;;;2083743;28;20030;-70
2023/10/06 05:07:48;;;;;;;16.85;8.32;;;;;;;;;;2074886;28;20430;-69
2023/10/06 05:09:09;;;;;;;13.77;10.40;;;;;;;;;;2069282;28;20552;-72
2023/10/06 05:10:31;;;;;;;16.83;8.48;;;;;;;;;;2071767;28;20038;-70
2023/10/06 05:11:52;;;;;;;24.83;9.70;;;;;;;;;;2071649;28;20041;-69
2023/10/06 05:13:14;;;;;;;16.38;9.40;;;;;;;;;;2070898;28;20029;-69
2023/10/06 05:14:35;;;;;;;18.05;9.43;;;;;;;;;;2076225;28;20425;-69
2023/10/06 05:15:56;;;;;;;17.70;11.55;;;;;;;;;;2063459;28;20033;-69
2023/10/06 05:17:17;;;;;;;17.60;10.80;;;;;;;;;;2070856;28;20037;-69
2023/10/06 05:18:38;;;;;;;19.17;10.05;;;;;;;;;;2069920;28;20033;-69
2023/10/06 05:20:00;;;;;;;17.00;9.35;;;;;;;;;;2070766;28;20092;-70
2023/10/06 05:21:20;;;;;;;14.00;10.07;;;;;;;;;;2072401;28;20038;-69
2023/10/06 05:22:41;;;;;;;17.40;9.45;;;;;;;;;;2071609;28;20156;-71
2023/10/06 05:24:02;;;;;;;14.07;9.23;;;;;;;;;;2069589;28;20034;-70
2023/10/06 05:25:25;;;;;;;14.85;9.60;;;;;;;;;;2064015;28;20153;-70
2023/10/06 05:26:46;;;;;;;13.13;8.00;;;;;;;;;;2075188;28;20374;-69
2023/10/06 05:28:10;;;;;;;16.10;9.85;;;;;;;;;;2069419;28;20027;-68
2023/10/06 05:29:35;;;;;;;11.05;8.93;;;;;;;;;;2075140;28;20034;-69
2023/10/06 05:30:57;;;;;;;20.33;10.23;;;;;;;;;;2079587;28;20505;-69
2023/10/06 05:32:17;;;;;;;13.38;8.20;;;;;;;;;;2078615;28;20084;-69
2023/10/06 05:33:40;;;;;;;15.60;8.80;;;;;;;;;;2081956;28;20037;-71
2023/10/06 05:35:01;;;;;;;12.60;8.15;;;;;;;;;;2087223;28;20026;-68
2023/10/06 05:36:22;;;;;;;12.13;7.15;;;;;;;;;;2082540;28;20049;-68
2023/10/06 05:37:44;;;;;;;15.68;8.57;;;;;;;;;;2081031;28;20081;-69
2023/10/06 05:39:05;;;;;;;11.57;7.80;;;;;;;;;;2082165;28;20072;-69
2023/10/06 05:40:29;;;;;;;12.07;7.60;;;;;;;;;;2073707;28;20485;-69
2023/10/06 05:41:51;;;;;;;11.95;8.00;;;;;;;;;;2071669;28;20793;-70
2023/10/06 05:43:12;;;;;;;22.92;9.60;;;;;;;;;;2071389;28;20437;-68
2023/10/06 05:44:32;;;;;;;9.43;7.00;;;;;;;;;;2064755;28;20030;-68
2023/10/06 05:45:56;;;;;;;18.15;8.40;;;;;;;;;;2067127;28;20050;-69
2023/10/06 05:47:17;;;;;;;12.73;7.85;;;;;;;;;;2074754;28;20060;-69
2023/10/06 05:48:39;;;;;;;13.90;8.07;;;;;;;;;;2080510;28;20029;-68
2023/10/06 05:50:08;;;;;;;15.00;8.45;;;;;;;;;;2073408;28;20041;-69
2023/10/06 05:51:33;;;;;;;17.50;8.75;;;;;;;;;;2082446;28;20421;-69
2023/10/06 05:52:57;;;;;;;10.40;7.13;;;;;;;;;;2075250;28;20022;-69
2023/10/06 05:54:21;;;;;;;10.80;7.70;;;;;;;;;;2073200;28;20034;-69
2023/10/06 05:55:42;;;;;;;13.20;7.85;;;;;;;;;;2081316;28;20030;-68
2023/10/06 05:57:04;;;;;;;14.13;8.05;;;;;;;;;;2076723;28;20029;-70
2023/10/06 05:58:25;;;;;;;13.23;6.60;;;;;;;;;;2076231;28;20489;-68
2023/10/06 05:59:48;;;;;;;14.90;7.65;;;;;;;;;;2075537;28;20034;-68
2023/10/06 06:01:20;;;;;;;9.55;7.22;;;;;;;;;;2076084;28;20033;-68
2023/10/06 06:02:41;;;;;;;15.27;7.83;;;;;;;;;;2073967;28;20044;-68
2023/10/06 06:04:09;;;;;;;15.98;9.18;;;;;;;;;;2080636;28;20426;-69
2023/10/06 06:05:33;;;;;;;13.80;8.55;;;;;;;;;;2072638;28;20034;-70
2023/10/06 06:06:57;;;;;;;15.73;7.97;;;;;;;;;;2074743;28;20026;-68
2023/10/06 06:08:18;;;;;;;12.15;7.60;;;;;;;;;;2073186;28;20022;-68
2023/10/06 06:09:39;;;;;;;13.00;7.60;;;;;;;;;;2075055;28;20049;-69
2023/10/06 06:11:00;;;;;;;12.38;7.45;;;;;;;;;;2085953;28;20034;-73
2023/10/06 06:12:21;;;;;;;11.73;7.18;;;;;;;;;;2089033;28;20071;-76
2023/10/06 06:13:42;;;;;;;9.45;6.68;;;;;;;;;;2085029;28;20026;-76
2023/10/06 06:15:05;;;;;;;17.00;7.43;;;;;;;;;;2083045;28;20060;-74
2023/10/06 06:16:26;;;;;;;16.48;7.40;;;;;;;;;;2074316;28;20488;-75
2023/10/06 06:17:50;;;;;;;14.20;7.70;;;;;;;;;;2090149;28;20504;-76
2023/10/06 06:19:11;;;;;;;12.43;7.32;;;;;;;;;;2090661;28;20025;-76
2023/10/06 06:20:32;;;;;;;9.27;6.85;;;;;;;;;;2082802;28;20046;-75
2023/10/06 06:21:53;;;;;;;14.13;7.65;;;;;;;;;;2073612;28;20084;-76
2023/10/06 06:23:15;;;;;;;13.18;7.38;;;;;;;;;;2076754;28;20030;-75
2023/10/06 06:24:38;;;;;;;11.05;7.97;;;;;;;;;;2080247;28;20029;-74
2023/10/06 06:25:59;;;;;;;16.85;8.52;;;;;;;;;;2074413;28;20050;-75
2023/10/06 06:27:22;;;;;;;12.52;7.88;;;;;;;;;;2082405;28;20025;-75
2023/10/06 06:28:43;;;;;;;14.63;7.00;;;;;;;;;;2073311;28;20100;-75
2023/10/06 06:30:05;;;;;;;13.33;7.50;;;;;;;;;;2076665;28;20041;-75
2023/10/06 06:31:26;;;;;;;12.02;6.60;;;;;;;;;;2074762;28;20029;-73
2023/10/06 06:32:50;;;;;;;17.70;8.52;;;;;;;;;;2073185;28;20026;-77
2023/10/06 06:34:11;;;;;;;13.35;6.70;;;;;;;;;;2072389;28;20096;-76
2023/10/06 06:35:32;;;;;;;17.00;7.10;;;;;;;;;;2073793;28;20087;-77
2023/10/06 06:36:53;;;;;;;14.57;7.20;;;;;;;;;;2071709;28;20081;-78
2023/10/06 06:38:14;;;;;;;13.85;6.82;;;;;;;;;;2072988;28;20455;-76
2023/10/06 06:39:37;;;;;;;16.33;7.97;;;;;;;;;;2071810;28;20485;-74
2023/10/06 06:40:59;;;;;;;14.52;7.15;;;;;;;;;;2080120;28;20535;-76
2023/10/06 06:42:20;;;;;;;13.73;6.88;;;;;;;;;;2075164;28;20022;-75
2023/10/06 06:43:45;;;;;;;12.20;6.88;;;;;;;;;;2080126;28;20524;-75
2023/10/06 06:45:06;;;;;;;13.80;7.82;;;;;;;;;;2075130;28;20034;-74
2023/10/06 06:46:29;;;;;;;15.18;7.88;;;;;;;;;;2082934;28;20029;-74
2023/10/06 06:47:51;;;;;;;14.95;8.32;;;;;;;;;;2070962;28;20080;-75
2023/10/06 06:49:12;;;;;;;15.38;8.40;;;;;;;;;;2075863;28;20083;-73
2023/10/06 06:50:33;;;;;;;18.38;7.78;;;;;;;;;;2069793;28;20084;-75
2023/10/06 06:51:58;;;;;;;14.68;6.82;;;;;;;;;;2083350;28;20029;-75
2023/10/06 06:53:19;;;;;;;15.60;7.20;;;;;;;;;;2074646;28;20034;-75
2023/10/06 06:54:46;;;;;;;15.93;7.45;;;;;;;;;;2075631;28;20028;-75
2023/10/06 06:56:10;;;;;;;12.85;7.55;;;;;;;;;;2074006;28;20030;-75
2023/10/06 06:57:31;;;;;;;14.40;7.70;;;;;;;;;;2062620;28;20039;-75
2023/10/06 06:58:52;;;;;;;16.77;7.23;;;;;;;;;;2071507;28;20819;-75
2023/10/06 07:00:16;;;;;;;13.45;6.13;;;;;;;;;;2074434;28;20046;-75
2023/10/06 07:01:38;;;;;;;14.60;6.82;;;;;;;;;;2071918;28;20030;-75
2023/10/06 07:02:59;;;;;;;17.58;8.32;;;;;;;;;;2072622;28;20037;-75
2023/10/06 07:04:24;;;;;;;19.70;8.73;;;;;;;;;;2074338;28;20038;-74
2023/10/06 07:05:45;;;;;;;12.63;6.50;;;;;;;;;;2073225;28;20404;-77
2023/10/06 07:07:06;;;;;;;15.02;7.47;;;;;;;;;;2072553;28;20080;-76
2023/10/06 07:08:27;;;;;;;13.75;6.90;;;;;;;;;;2081942;28;20420;-78
2023/10/06 07:09:48;;;;;;;17.83;7.78;;;;;;;;;;2073788;28;20042;-73
2023/10/06 07:11:10;;;;;;;13.55;6.97;;;;;;;;;;2081457;28;20400;-73
2023/10/06 07:12:31;;;;;;;13.77;7.35;;;;;;;;;;2080191;28;20026;-74
2023/10/06 07:13:52;;;;;;;11.77;7.32;;;;;;;;;;2087476;28;20032;-75
2023/10/06 07:15:16;;;;;;;16.10;7.25;;;;;;;;;;2081625;28;20029;-73
2023/10/06 07:16:37;;;;;;;14.90;6.88;;;;;;;;;;2079822;28;20030;-75
2023/10/06 07:17:58;;;;;;;16.50;7.13;;;;;;;;;;2081310;28;20025;-77
2023/10/06 07:19:19;;;;;;;16.27;8.20;;;;;;;;;;2089499;28;20025;-78
2023/10/06 07:20:40;;;;;;;17.30;6.95;;;;;;;;;;2080301;28;20033;-78
2023/10/06 07:22:01;;;;;;;11.15;7.60;;;;;;;;;;2082667;28;20029;-75
2023/10/06 07:23:22;;;;;;;13.63;6.53;;;;;;;;;;2089245;28;20033;-77
2023/10/06 07:24:53;;;;;;;14.90;7.35;;;;;;;;;;2085453;28;20037;-78
2023/10/06 07:26:14;;;;;;;21.25;8.20;;;;;;;;;;2094885;28;20458;-80
2023/10/06 07:27:35;;;;;;;15.18;7.57;;;;;;;;;;2081706;28;20080;-80
2023/10/06 07:28:58;;;;;;;15.13;7.40;;;;;;;;;;2081861;28;20042;-77
2023/10/06 07:30:22;;;;;;;12.60;5.90;;;;;;;;;;2074631;28;20095;-80
2023/10/06 07:31:43;;;;;;;12.95;6.85;;;;;;;;;;2078560;28;20033;-75
2023/10/06 07:33:05;;;;;;;10.80;6.18;;;;;;;;;;2081078;28;20554;-75
2023/10/06 07:34:27;;;;;;;15.35;6.25;;;;;;;;;;2081665;28;20507;-75
2023/10/06 07:35:51;;;;;;;17.67;7.07;;;;;;;;;;2081890;28;20033;-76
2023/10/06 07:37:12;;;;;;;15.45;6.57;;;;;;;;;;2080107;28;20045;-75
2023/10/06 07:38:33;;;;;;;12.55;6.88;;;;;;;;;;2078665;28;20041;-75
2023/10/06 07:39:54;;;;;;;19.77;8.15;;;;;;;;;;2081527;28;20094;-74
2023/10/06 07:41:23;;;;;;;17.80;8.50;;;;;;;;;;2081765;28;20060;-75
2023/10/06 07:42:45;;;;;;;14.45;7.15;;;;;;;;;;2076294;28;20033;-74
2023/10/06 07:44:06;;;;;;;13.95;6.13;;;;;;;;;;2080258;28;20029;-75
2023/10/06 07:45:27;;;;;;;11.73;6.40;;;;;;;;;;2075681;28;20405;-78
2023/10/06 07:46:52;;;;;;;11.93;6.68;;;;;;;;;;2076106;28;20184;-79
2023/10/06 07:48:14;;;;;;;18.00;6.82;;;;;;;;;;2072564;28;20030;-78
2023/10/06 07:49:35;;;;;;;9.27;5.43;;;;;;;;;;2072663;28;20390;-75
2023/10/06 07:51:02;;;;;;;14.50;5.30;;;;;;;;;;2072724;28;20042;-78
2023/10/06 07:52:23;;;;;;;11.35;5.80;;;;;;;;;;2072158;28;20489;-74
2023/10/06 07:53:44;;;;;;;10.65;5.15;;;;;;;;;;2071414;28;20076;-72
2023/10/06 07:55:05;;;;;;;17.70;7.63;;;;;;;;;;2070925;28;20199;-75
2023/10/06 07:56:26;;;;;;;13.53;6.50;;;;;;;;;;2072606;28;20038;-75
2023/10/06 07:57:51;;;;;;;16.80;7.18;;;;;;;;;;2072905;28;20029;-75
2023/10/06 07:59:11;;;;;;;14.20;5.55;;;;;;;;;;2079474;28;20421;-74
2023/10/06 08:00:38;;;;;;;11.43;6.32;;;;;;;;;;2071426;28;20095;-74
2023/10/06 08:01:59;;;;;;;13.45;5.72;;;;;;;;;;2075255;28;20065;-75
2023/10/06 08:03:20;;;;;;;11.73;6.07;;;;;;;;;;2085286;28;20411;-75
2023/10/06 08:04:41;;;;;;;13.73;6.60;;;;;;;;;;2082148;28;20052;-74
2023/10/06 08:06:02;;;;;;;12.95;5.85;;;;;;;;;;2080354;28;20034;-74
2023/10/06 08:07:27;;;;;;;16.23;7.20;;;;;;;;;;2075424;28;20185;-75
2023/10/06 08:08:48;;;;;;;16.70;7.00;;;;;;;;;;2069060;28;20489;-71
2023/10/06 08:10:13;;;;;;;15.07;6.78;;;;;;;;;;2072015;28;20067;-74
2023/10/06 08:11:34;;;;;;;14.88;5.90;;;;;;;;;;2085533;28;20033;-72
2023/10/06 08:12:56;;;;;;;10.95;6.45;;;;;;;;;;2072184;28;20030;-75
2023/10/06 08:14:17;;;;;;;15.80;5.25;;;;;;;;;;2072977;28;20030;-74
2023/10/06 08:15:44;;;;;;;16.48;5.43;;;;;;;;;;2073058;28;20026;-74
2023/10/06 08:17:05;;;;;;;16.55;7.00;;;;;;;;;;2073416;28;20445;-74